TAF MGMM
METAR MGMM
MGMM 270800Z 00000KT 9999 BKN018 22/21 Q1018 A3006=
MGMM 270700Z 00000KT 9999 BKN018 22/20 Q1018 A3006=
MGMM 270600Z 00000KT 9999 BKN018 22/20 Q1019 A3009=
MGMM 270500Z 00000KT 9999 BKN018 SCT090 22/21 Q1019 A3009=
MGMM 270400Z 00000KT 9999 BKN018 SCT090 22/21 Q1019 A3009=
WC MGMM
WS MGMM
WV MGMM